sensor_id;sensor_type;location;lat;lon;timestamp;pressure;altitude;pressure_sealevel;temperature;humidity
64230;BME280;50547;49.498;0.092;2023-02-28T00:01:38;1026.78;;;3.84;66.70
64230;BME280;50547;49.498;0.092;2023-02-28T00:04:07;1026.80;;;3.86;66.43
64230;BME280;50547;49.498;0.092;2023-02-28T00:06:36;1026.82;;;3.76;66.63
64230;BME280;50547;49.498;0.092;2023-02-28T00:09:05;1026.82;;;3.64;67.35
64230;BME280;50547;49.498;0.092;2023-02-28T00:11:34;1026.78;;;3.67;66.87
64230;BME280;50547;49.498;0.092;2023-02-28T00:14:03;1026.82;;;3.69;66.49
64230;BME280;50547;49.498;0.092;2023-02-28T00:16:32;1026.84;;;3.77;65.90
64230;BME280;50547;49.498;0.092;2023-02-28T00:19:02;1026.82;;;3.75;65.85
64230;BME280;50547;49.498;0.092;2023-02-28T00:21:31;1026.78;;;3.71;66.06
64230;BME280;50547;49.498;0.092;2023-02-28T00:24:00;1026.76;;;3.71;66.25
64230;BME280;50547;49.498;0.092;2023-02-28T00:26:29;1026.86;;;3.79;65.35
64230;BME280;50547;49.498;0.092;2023-02-28T00:28:58;1026.82;;;3.73;65.36
64230;BME280;50547;49.498;0.092;2023-02-28T00:31:27;1026.84;;;3.72;65.63
64230;BME280;50547;49.498;0.092;2023-02-28T00:33:56;1026.84;;;3.72;65.63
64230;BME280;50547;49.498;0.092;2023-02-28T00:36:26;1026.74;;;3.73;65.54
64230;BME280;50547;49.498;0.092;2023-02-28T00:38:55;1026.82;;;3.66;65.87
64230;BME280;50547;49.498;0.092;2023-02-28T00:41:24;1026.84;;;3.71;65.56
64230;BME280;50547;49.498;0.092;2023-02-28T00:43:53;1026.80;;;3.78;64.98
64230;BME280;50547;49.498;0.092;2023-02-28T00:46:22;1026.70;;;3.69;65.25
64230;BME280;50547;49.498;0.092;2023-02-28T00:48:51;1026.84;;;3.57;65.73
64230;BME280;50547;49.498;0.092;2023-02-28T00:51:17;1026.84;;;3.63;65.30
64230;BME280;50547;49.498;0.092;2023-02-28T00:53:46;1026.82;;;3.63;65.27
64230;BME280;50547;49.498;0.092;2023-02-28T00:56:16;1026.90;;;3.70;65.04
64230;BME280;50547;49.498;0.092;2023-02-28T00:58:45;1026.90;;;3.69;64.84
64230;BME280;50547;49.498;0.092;2023-02-28T01:01:14;1026.88;;;3.69;64.65
64230;BME280;50547;49.498;0.092;2023-02-28T01:03:43;1026.90;;;3.68;64.87
64230;BME280;50547;49.498;0.092;2023-02-28T01:06:12;1026.92;;;3.72;64.64
64230;BME280;50547;49.498;0.092;2023-02-28T01:08:42;1026.96;;;3.72;64.35
64230;BME280;50547;49.498;0.092;2023-02-28T01:11:12;1026.98;;;3.72;64.77
64230;BME280;50547;49.498;0.092;2023-02-28T01:13:44;1026.96;;;3.75;64.33
64230;BME280;50547;49.498;0.092;2023-02-28T01:16:14;1026.98;;;3.61;64.95
64230;BME280;50547;49.498;0.092;2023-02-28T01:18:44;1026.98;;;3.65;64.49
64230;BME280;50547;49.498;0.092;2023-02-28T01:21:17;1026.98;;;3.64;64.45
64230;BME280;50547;49.498;0.092;2023-02-28T01:23:47;1027.00;;;3.57;64.88
64230;BME280;50547;49.498;0.092;2023-02-28T01:26:18;1027.04;;;3.59;64.78
64230;BME280;50547;49.498;0.092;2023-02-28T01:28:48;1027.00;;;3.61;64.51
64230;BME280;50547;49.498;0.092;2023-02-28T01:31:19;1027.02;;;3.65;64.66
64230;BME280;50547;49.498;0.092;2023-02-28T01:33:49;1027.00;;;3.63;64.46
64230;BME280;50547;49.498;0.092;2023-02-28T01:36:20;1027.02;;;3.67;64.53
64230;BME280;50547;49.498;0.092;2023-02-28T01:38:50;1026.98;;;3.69;64.49
64230;BME280;50547;49.498;0.092;2023-02-28T01:41:22;1027.00;;;3.57;65.36
64230;BME280;50547;49.498;0.092;2023-02-28T01:43:58;1027.00;;;3.57;65.19
64230;BME280;50547;49.498;0.092;2023-02-28T01:46:28;1026.94;;;3.66;64.61
64230;BME280;50547;49.498;0.092;2023-02-28T01:49:02;1026.94;;;3.68;64.57
64230;BME280;50547;49.498;0.092;2023-02-28T01:51:37;1026.94;;;3.68;64.65
64230;BME280;50547;49.498;0.092;2023-02-28T01:54:10;1026.98;;;3.74;64.45
64230;BME280;50547;49.498;0.092;2023-02-28T01:56:44;1026.92;;;3.67;64.96
64230;BME280;50547;49.498;0.092;2023-02-28T01:59:21;1026.92;;;3.72;64.95
64230;BME280;50547;49.498;0.092;2023-02-28T02:01:53;1026.88;;;3.80;64.73
64230;BME280;50547;49.498;0.092;2023-02-28T02:04:23;1026.94;;;3.76;65.01
64230;BME280;50547;49.498;0.092;2023-02-28T02:06:55;1026.98;;;3.74;65.08
64230;BME280;50547;49.498;0.092;2023-02-28T02:09:25;1026.98;;;3.63;65.82
64230;BME280;50547;49.498;0.092;2023-02-28T02:11:55;1026.94;;;3.69;65.57
64230;BME280;50547;49.498;0.092;2023-02-28T02:14:33;1026.94;;;3.63;65.74
64230;BME280;50547;49.498;0.092;2023-02-28T02:17:16;1026.92;;;3.65;65.49
64230;BME280;50547;49.498;0.092;2023-02-28T02:21:09;1026.94;;;3.60;65.82
64230;BME280;50547;49.498;0.092;2023-02-28T02:23:59;1026.92;;;3.65;65.69
64230;BME280;50547;49.498;0.092;2023-02-28T02:26:47;1026.98;;;3.60;66.01
64230;BME280;50547;49.498;0.092;2023-02-28T02:29:38;1027.02;;;3.55;66.30
64230;BME280;50547;49.498;0.092;2023-02-28T02:32:42;1026.98;;;3.52;66.31
64230;BME280;50547;49.498;0.092;2023-02-28T02:35:17;1026.96;;;3.49;66.49
64230;BME280;50547;49.498;0.092;2023-02-28T02:37:51;1026.98;;;3.44;66.71
64230;BME280;50547;49.498;0.092;2023-02-28T02:40:23;1026.96;;;3.41;66.79
64230;BME280;50547;49.498;0.092;2023-02-28T02:42:58;1026.96;;;3.44;66.94
64230;BME280;50547;49.498;0.092;2023-02-28T02:45:33;1026.98;;;3.44;66.68
64230;BME280;50547;49.498;0.092;2023-02-28T02:48:06;1026.86;;;3.45;66.65
64230;BME280;50547;49.498;0.092;2023-02-28T02:50:40;1026.86;;;3.44;66.81
64230;BME280;50547;49.498;0.092;2023-02-28T02:53:12;1026.84;;;3.39;67.09
64230;BME280;50547;49.498;0.092;2023-02-28T02:55:46;1026.80;;;3.39;67.20
64230;BME280;50547;49.498;0.092;2023-02-28T02:58:19;1026.84;;;3.35;67.33
64230;BME280;50547;49.498;0.092;2023-02-28T03:00:53;1026.82;;;3.37;66.99
64230;BME280;50547;49.498;0.092;2023-02-28T03:03:24;1026.86;;;3.31;67.35
64230;BME280;50547;49.498;0.092;2023-02-28T03:05:53;1026.84;;;3.35;67.16
64230;BME280;50547;49.498;0.092;2023-02-28T03:08:19;1026.90;;;3.32;67.22
64230;BME280;50547;49.498;0.092;2023-02-28T03:10:50;1026.94;;;3.37;67.00
64230;BME280;50547;49.498;0.092;2023-02-28T03:13:41;1026.92;;;3.25;67.49
64230;BME280;50547;49.498;0.092;2023-02-28T03:16:27;1026.96;;;3.26;67.42
64230;BME280;50547;49.498;0.092;2023-02-28T03:19:06;1027.00;;;3.26;67.45
64230;BME280;50547;49.498;0.092;2023-02-28T03:21:45;1027.04;;;3.28;67.30
64230;BME280;50547;49.498;0.092;2023-02-28T03:24:23;1027.02;;;3.23;67.46
64230;BME280;50547;49.498;0.092;2023-02-28T03:27:02;1027.06;;;3.18;67.76
64230;BME280;50547;49.498;0.092;2023-02-28T03:29:37;1027.14;;;3.27;67.45
64230;BME280;50547;49.498;0.092;2023-02-28T03:32:13;1027.14;;;3.21;67.64
64230;BME280;50547;49.498;0.092;2023-02-28T03:34:49;1027.19;;;3.27;67.49
64230;BME280;50547;49.498;0.092;2023-02-28T03:37:22;1027.12;;;3.26;67.47
64230;BME280;50547;49.498;0.092;2023-02-28T03:39:56;1027.16;;;3.22;67.67
64230;BME280;50547;49.498;0.092;2023-02-28T03:42:29;1027.17;;;3.18;68.01
64230;BME280;50547;49.498;0.092;2023-02-28T03:45:02;1027.21;;;3.12;68.33
64230;BME280;50547;49.498;0.092;2023-02-28T03:47:37;1027.17;;;3.13;68.32
64230;BME280;50547;49.498;0.092;2023-02-28T03:50:12;1027.19;;;3.15;68.29
64230;BME280;50547;49.498;0.092;2023-02-28T03:52:47;1027.19;;;3.19;68.09
64230;BME280;50547;49.498;0.092;2023-02-28T03:55:19;1027.19;;;3.14;68.27
64230;BME280;50547;49.498;0.092;2023-02-28T03:57:56;1027.21;;;3.13;68.19
64230;BME280;50547;49.498;0.092;2023-02-28T04:00:30;1027.19;;;3.17;67.96
64230;BME280;50547;49.498;0.092;2023-02-28T04:03:01;1027.23;;;3.18;67.96
64230;BME280;50547;49.498;0.092;2023-02-28T04:05:31;1027.19;;;3.09;68.22
64230;BME280;50547;49.498;0.092;2023-02-28T04:08:04;1027.23;;;3.17;67.85
64230;BME280;50547;49.498;0.092;2023-02-28T04:10:33;1027.21;;;3.11;68.04
64230;BME280;50547;49.498;0.092;2023-02-28T04:13:02;1027.21;;;3.19;67.70
64230;BME280;50547;49.498;0.092;2023-02-28T04:15:32;1027.27;;;3.15;67.77
64230;BME280;50547;49.498;0.092;2023-02-28T04:18:01;1027.29;;;3.12;67.89
64230;BME280;50547;49.498;0.092;2023-02-28T04:20:30;1027.29;;;3.08;68.00
64230;BME280;50547;49.498;0.092;2023-02-28T04:22:59;1027.23;;;3.11;67.70
64230;BME280;50547;49.498;0.092;2023-02-28T04:25:28;1027.23;;;3.17;67.42
64230;BME280;50547;49.498;0.092;2023-02-28T04:27:57;1027.19;;;3.16;67.44
64230;BME280;50547;49.498;0.092;2023-02-28T04:30:27;1027.21;;;3.19;67.44
64230;BME280;50547;49.498;0.092;2023-02-28T04:32:56;1027.19;;;3.23;67.09
64230;BME280;50547;49.498;0.092;2023-02-28T04:35:25;1027.23;;;3.22;67.17
64230;BME280;50547;49.498;0.092;2023-02-28T04:37:54;1027.27;;;3.30;66.95
64230;BME280;50547;49.498;0.092;2023-02-28T04:40:23;1027.21;;;3.40;66.27
64230;BME280;50547;49.498;0.092;2023-02-28T04:42:52;1027.21;;;3.43;66.36
64230;BME280;50547;49.498;0.092;2023-02-28T04:45:21;1027.25;;;3.35;66.92
64230;BME280;50547;49.498;0.092;2023-02-28T04:47:50;1027.25;;;3.25;67.42
64230;BME280;50547;49.498;0.092;2023-02-28T04:50:19;1027.31;;;3.14;68.20
64230;BME280;50547;49.498;0.092;2023-02-28T04:52:49;1027.35;;;3.15;68.18
64230;BME280;50547;49.498;0.092;2023-02-28T04:55:18;1027.33;;;3.24;67.79
64230;BME280;50547;49.498;0.092;2023-02-28T04:57:47;1027.33;;;3.43;66.96
64230;BME280;50547;49.498;0.092;2023-02-28T05:00:17;1027.33;;;3.39;67.23
64230;BME280;50547;49.498;0.092;2023-02-28T05:02:46;1027.35;;;3.33;67.78
64230;BME280;50547;49.498;0.092;2023-02-28T05:05:15;1027.33;;;3.26;68.23
64230;BME280;50547;49.498;0.092;2023-02-28T05:07:44;1027.37;;;3.16;68.85
64230;BME280;50547;49.498;0.092;2023-02-28T05:10:14;1027.31;;;3.20;68.53
64230;BME280;50547;49.498;0.092;2023-02-28T05:12:43;1027.35;;;3.15;68.78
64230;BME280;50547;49.498;0.092;2023-02-28T05:15:13;1027.33;;;3.17;68.59
64230;BME280;50547;49.498;0.092;2023-02-28T05:17:42;1027.37;;;3.23;68.43
64230;BME280;50547;49.498;0.092;2023-02-28T05:20:12;1027.33;;;3.18;68.71
64230;BME280;50547;49.498;0.092;2023-02-28T05:22:38;1027.33;;;3.09;69.11
64230;BME280;50547;49.498;0.092;2023-02-28T05:25:10;1027.35;;;3.02;69.49
64230;BME280;50547;49.498;0.092;2023-02-28T05:27:41;1027.31;;;3.02;69.17
64230;BME280;50547;49.498;0.092;2023-02-28T05:30:11;1027.37;;;2.95;69.52
64230;BME280;50547;49.498;0.092;2023-02-28T05:32:40;1027.35;;;2.97;69.43
64230;BME280;50547;49.498;0.092;2023-02-28T05:35:10;1027.29;;;2.97;69.41
64230;BME280;50547;49.498;0.092;2023-02-28T05:37:40;1027.31;;;3.00;69.26
64230;BME280;50547;49.498;0.092;2023-02-28T05:40:10;1027.33;;;2.99;69.28
64230;BME280;50547;49.498;0.092;2023-02-28T05:42:39;1027.29;;;3.03;69.38
64230;BME280;50547;49.498;0.092;2023-02-28T05:45:09;1027.29;;;2.95;69.69
64230;BME280;50547;49.498;0.092;2023-02-28T05:47:38;1027.37;;;2.92;69.75
64230;BME280;50547;49.498;0.092;2023-02-28T05:50:09;1027.39;;;2.91;69.76
64230;BME280;50547;49.498;0.092;2023-02-28T05:52:38;1027.47;;;3.04;69.12
64230;BME280;50547;49.498;0.092;2023-02-28T05:55:08;1027.47;;;2.98;69.29
64230;BME280;50547;49.498;0.092;2023-02-28T05:57:37;1027.53;;;2.96;69.50
64230;BME280;50547;49.498;0.092;2023-02-28T06:00:08;1027.49;;;2.83;70.12
64230;BME280;50547;49.498;0.092;2023-02-28T06:02:38;1027.56;;;2.84;70.14
64230;BME280;50547;49.498;0.092;2023-02-28T06:05:13;1027.56;;;2.88;69.74
64230;BME280;50547;49.498;0.092;2023-02-28T06:07:43;1027.60;;;2.86;69.72
64230;BME280;50547;49.498;0.092;2023-02-28T06:10:13;1027.66;;;2.86;69.86
64230;BME280;50547;49.498;0.092;2023-02-28T06:12:43;1027.68;;;2.84;69.77
64230;BME280;50547;49.498;0.092;2023-02-28T06:15:14;1027.66;;;2.85;69.45
64230;BME280;50547;49.498;0.092;2023-02-28T06:17:44;1027.68;;;2.76;69.57
64230;BME280;50547;49.498;0.092;2023-02-28T06:20:13;1027.74;;;2.76;69.65
64230;BME280;50547;49.498;0.092;2023-02-28T06:22:42;1027.76;;;2.73;69.54
64230;BME280;50547;49.498;0.092;2023-02-28T06:25:11;1027.80;;;2.72;69.39
64230;BME280;50547;49.498;0.092;2023-02-28T06:27:40;1027.76;;;2.66;69.42
64230;BME280;50547;49.498;0.092;2023-02-28T06:30:11;1027.72;;;2.68;69.31
64230;BME280;50547;49.498;0.092;2023-02-28T06:32:40;1027.84;;;2.72;68.91
64230;BME280;50547;49.498;0.092;2023-02-28T06:35:09;1027.82;;;2.81;68.62
64230;BME280;50547;49.498;0.092;2023-02-28T06:37:38;1027.78;;;2.79;68.79
64230;BME280;50547;49.498;0.092;2023-02-28T06:40:09;1027.84;;;2.71;69.15
64230;BME280;50547;49.498;0.092;2023-02-28T06:42:38;1027.84;;;2.62;69.52
64230;BME280;50547;49.498;0.092;2023-02-28T06:45:09;1027.86;;;2.72;69.15
64230;BME280;50547;49.498;0.092;2023-02-28T06:47:40;1027.78;;;2.76;68.65
64230;BME280;50547;49.498;0.092;2023-02-28T06:50:11;1027.80;;;2.71;69.00
64230;BME280;50547;49.498;0.092;2023-02-28T06:52:41;1027.84;;;2.60;69.45
64230;BME280;50547;49.498;0.092;2023-02-28T06:55:11;1027.86;;;2.60;69.45
64230;BME280;50547;49.498;0.092;2023-02-28T06:57:40;1027.86;;;2.65;69.06
64230;BME280;50547;49.498;0.092;2023-02-28T07:00:11;1027.88;;;2.65;69.02
64230;BME280;50547;49.498;0.092;2023-02-28T07:02:40;1027.96;;;2.74;68.47
64230;BME280;50547;49.498;0.092;2023-02-28T07:05:09;1027.96;;;2.62;69.18
64230;BME280;50547;49.498;0.092;2023-02-28T07:07:39;1027.90;;;2.64;69.12
64230;BME280;50547;49.498;0.092;2023-02-28T07:10:06;1027.96;;;2.64;69.07
64230;BME280;50547;49.498;0.092;2023-02-28T07:12:36;1027.96;;;2.65;69.35
64230;BME280;50547;49.498;0.092;2023-02-28T07:15:06;1027.98;;;2.75;68.57
64230;BME280;50547;49.498;0.092;2023-02-28T07:17:36;1028.00;;;2.68;68.85
64230;BME280;50547;49.498;0.092;2023-02-28T07:20:06;1028.05;;;2.67;68.98
64230;BME280;50547;49.498;0.092;2023-02-28T07:22:35;1028.19;;;2.76;68.58
64230;BME280;50547;49.498;0.092;2023-02-28T07:25:05;1028.13;;;2.83;68.34
64230;BME280;50547;49.498;0.092;2023-02-28T07:27:34;1028.09;;;2.91;67.96
64230;BME280;50547;49.498;0.092;2023-02-28T07:30:04;1028.13;;;2.88;68.17
64230;BME280;50547;49.498;0.092;2023-02-28T07:32:34;1028.19;;;2.95;68.00
64230;BME280;50547;49.498;0.092;2023-02-28T07:35:04;1028.15;;;3.02;67.65
64230;BME280;50547;49.498;0.092;2023-02-28T07:37:33;1028.23;;;3.06;67.30
64230;BME280;50547;49.498;0.092;2023-02-28T07:39:59;1028.29;;;3.16;67.18
64230;BME280;50547;49.498;0.092;2023-02-28T07:42:28;1028.27;;;3.25;66.49
64230;BME280;50547;49.498;0.092;2023-02-28T07:44:55;1028.33;;;3.20;66.77
64230;BME280;50547;49.498;0.092;2023-02-28T07:47:25;1028.37;;;3.40;66.13
64230;BME280;50547;49.498;0.092;2023-02-28T07:49:54;1028.39;;;3.57;65.31
64230;BME280;50547;49.498;0.092;2023-02-28T07:52:20;1028.41;;;3.67;65.01
64230;BME280;50547;49.498;0.092;2023-02-28T07:54:49;1028.37;;;3.78;64.73
64230;BME280;50547;49.498;0.092;2023-02-28T07:57:18;1028.39;;;3.83;64.67
64230;BME280;50547;49.498;0.092;2023-02-28T07:59:48;1028.35;;;3.89;64.24
64230;BME280;50547;49.498;0.092;2023-02-28T08:02:18;1028.31;;;3.92;64.27
64230;BME280;50547;49.498;0.092;2023-02-28T08:04:44;1028.29;;;3.79;64.87
64230;BME280;50547;49.498;0.092;2023-02-28T08:07:13;1028.31;;;3.75;64.93
64230;BME280;50547;49.498;0.092;2023-02-28T08:09:40;1028.29;;;3.84;64.34
64230;BME280;50547;49.498;0.092;2023-02-28T08:12:10;1028.27;;;3.89;63.94
64230;BME280;50547;49.498;0.092;2023-02-28T08:14:40;1028.25;;;3.93;64.21
64230;BME280;50547;49.498;0.092;2023-02-28T08:17:10;1028.23;;;4.01;63.68
64230;BME280;50547;49.498;0.092;2023-02-28T08:19:36;1028.25;;;4.36;62.66
64230;BME280;50547;49.498;0.092;2023-02-28T08:22:05;1028.25;;;4.41;62.06
64230;BME280;50547;49.498;0.092;2023-02-28T08:24:34;1028.27;;;4.60;61.61
64230;BME280;50547;49.498;0.092;2023-02-28T08:27:04;1028.25;;;4.75;60.48
64230;BME280;50547;49.498;0.092;2023-02-28T08:29:33;1028.21;;;4.76;60.74
64230;BME280;50547;49.498;0.092;2023-02-28T08:32:02;1028.27;;;4.67;60.76
64230;BME280;50547;49.498;0.092;2023-02-28T08:34:28;1028.27;;;4.68;61.09
64230;BME280;50547;49.498;0.092;2023-02-28T08:36:57;1028.29;;;5.01;60.48
64230;BME280;50547;49.498;0.092;2023-02-28T08:39:26;1028.25;;;5.11;58.97
64230;BME280;50547;49.498;0.092;2023-02-28T08:41:52;1028.21;;;5.36;58.66
64230;BME280;50547;49.498;0.092;2023-02-28T08:44:21;1028.15;;;5.16;58.69
64230;BME280;50547;49.498;0.092;2023-02-28T08:46:50;1028.29;;;5.00;59.87
64230;BME280;50547;49.498;0.092;2023-02-28T08:49:20;1028.27;;;5.31;59.06
64230;BME280;50547;49.498;0.092;2023-02-28T08:51:49;1028.25;;;5.66;57.57
64230;BME280;50547;49.498;0.092;2023-02-28T08:54:18;1028.25;;;5.89;56.99
64230;BME280;50547;49.498;0.092;2023-02-28T08:56:44;1028.29;;;6.05;56.18
64230;BME280;50547;49.498;0.092;2023-02-28T08:59:14;1028.27;;;5.99;56.77
64230;BME280;50547;49.498;0.092;2023-02-28T09:01:40;1028.17;;;5.93;57.30
64230;BME280;50547;49.498;0.092;2023-02-28T09:04:09;1028.17;;;5.59;58.31
64230;BME280;50547;49.498;0.092;2023-02-28T09:06:38;1028.11;;;5.71;57.93
64230;BME280;50547;49.498;0.092;2023-02-28T09:09:08;1028.11;;;5.58;58.17
64230;BME280;50547;49.498;0.092;2023-02-28T09:11:37;1028.15;;;5.69;58.11
64230;BME280;50547;49.498;0.092;2023-02-28T09:14:06;1028.19;;;5.61;58.26
64230;BME280;50547;49.498;0.092;2023-02-28T09:16:33;1028.13;;;5.82;57.57
64230;BME280;50547;49.498;0.092;2023-02-28T09:19:02;1028.13;;;5.89;57.14
64230;BME280;50547;49.498;0.092;2023-02-28T09:21:28;1028.15;;;5.81;57.77
64230;BME280;50547;49.498;0.092;2023-02-28T09:23:57;1028.09;;;5.84;57.90
64230;BME280;50547;49.498;0.092;2023-02-28T09:26:27;1028.13;;;6.02;57.50
64230;BME280;50547;49.498;0.092;2023-02-28T09:28:56;1028.19;;;5.92;57.57
64230;BME280;50547;49.498;0.092;2023-02-28T09:31:28;1028.13;;;6.02;57.56
64230;BME280;50547;49.498;0.092;2023-02-28T09:33:58;1028.11;;;5.99;58.06
64230;BME280;50547;49.498;0.092;2023-02-28T09:36:25;1028.09;;;6.01;57.81
64230;BME280;50547;49.498;0.092;2023-02-28T09:38:54;1028.11;;;6.29;56.50
64230;BME280;50547;49.498;0.092;2023-02-28T09:41:25;1028.05;;;6.62;55.98
64230;BME280;50547;49.498;0.092;2023-02-28T09:43:57;1028.09;;;6.43;56.19
64230;BME280;50547;49.498;0.092;2023-02-28T09:46:32;1028.09;;;6.26;57.55
64230;BME280;50547;49.498;0.092;2023-02-28T09:49:06;1028.02;;;6.64;56.73
64230;BME280;50547;49.498;0.092;2023-02-28T09:51:45;1028.00;;;6.90;56.16
64230;BME280;50547;49.498;0.092;2023-02-28T09:54:18;1028.00;;;7.01;55.85
64230;BME280;50547;49.498;0.092;2023-02-28T09:56:50;1028.11;;;6.85;56.06
64230;BME280;50547;49.498;0.092;2023-02-28T09:59:32;1028.07;;;6.89;56.12
64230;BME280;50547;49.498;0.092;2023-02-28T10:02:17;1027.98;;;7.00;55.12
64230;BME280;50547;49.498;0.092;2023-02-28T10:04:52;1028.09;;;6.78;55.97
64230;BME280;50547;49.498;0.092;2023-02-28T10:07:40;1028.05;;;6.92;55.69
64230;BME280;50547;49.498;0.092;2023-02-28T10:10:21;1028.05;;;6.80;56.54
64230;BME280;50547;49.498;0.092;2023-02-28T10:12:55;1027.98;;;6.21;58.93
64230;BME280;50547;49.498;0.092;2023-02-28T10:15:30;1028.00;;;6.36;58.43
64230;BME280;50547;49.498;0.092;2023-02-28T10:18:02;1027.98;;;6.09;59.50
64230;BME280;50547;49.498;0.092;2023-02-28T10:20:35;1028.03;;;6.45;57.95
64230;BME280;50547;49.498;0.092;2023-02-28T10:23:37;1028.03;;;6.66;57.14
64230;BME280;50547;49.498;0.092;2023-02-28T10:26:12;1027.96;;;6.45;58.34
64230;BME280;50547;49.498;0.092;2023-02-28T10:28:43;1027.96;;;6.29;59.15
64230;BME280;50547;49.498;0.092;2023-02-28T10:31:16;1027.86;;;6.22;59.48
64230;BME280;50547;49.498;0.092;2023-02-28T10:33:47;1028.02;;;6.18;59.36
64230;BME280;50547;49.498;0.092;2023-02-28T10:36:19;1028.05;;;6.25;59.14
64230;BME280;50547;49.498;0.092;2023-02-28T10:38:49;1028.00;;;6.30;59.40
64230;BME280;50547;49.498;0.092;2023-02-28T10:41:28;1027.96;;;5.99;60.67
64230;BME280;50547;49.498;0.092;2023-02-28T10:44:14;1027.90;;;6.15;60.48
64230;BME280;50547;49.498;0.092;2023-02-28T10:46:43;1027.96;;;5.90;62.05
64230;BME280;50547;49.498;0.092;2023-02-28T10:49:17;1028.03;;;5.86;62.53
64230;BME280;50547;49.498;0.092;2023-02-28T10:51:52;1027.88;;;6.06;61.63
64230;BME280;50547;49.498;0.092;2023-02-28T10:54:24;1027.90;;;5.93;61.97
64230;BME280;50547;49.498;0.092;2023-02-28T10:57:30;1027.84;;;6.01;62.29
64230;BME280;50547;49.498;0.092;2023-02-28T11:00:12;1027.94;;;6.11;62.13
64230;BME280;50547;49.498;0.092;2023-02-28T11:02:42;1027.92;;;6.36;61.74
64230;BME280;50547;49.498;0.092;2023-02-28T11:05:24;1027.88;;;6.62;60.89
64230;BME280;50547;49.498;0.092;2023-02-28T11:07:55;1027.90;;;6.81;60.76
64230;BME280;50547;49.498;0.092;2023-02-28T11:10:28;1027.90;;;6.58;61.65
64230;BME280;50547;49.498;0.092;2023-02-28T11:12:59;1027.90;;;6.68;62.05
64230;BME280;50547;49.498;0.092;2023-02-28T11:15:30;1027.90;;;6.72;62.25
64230;BME280;50547;49.498;0.092;2023-02-28T11:18:04;1027.90;;;7.04;61.40
64230;BME280;50547;49.498;0.092;2023-02-28T11:20:35;1027.82;;;6.00;66.01
64230;BME280;50547;49.498;0.092;2023-02-28T11:23:05;1027.94;;;5.82;68.27
64230;BME280;50547;49.498;0.092;2023-02-28T11:25:47;1027.88;;;6.21;66.42
64230;BME280;50547;49.498;0.092;2023-02-28T11:28:27;1027.82;;;6.43;66.55
64230;BME280;50547;49.498;0.092;2023-02-28T11:31:03;1027.78;;;6.18;67.22
64230;BME280;50547;49.498;0.092;2023-02-28T11:33:41;1027.82;;;5.93;69.38
64230;BME280;50547;49.498;0.092;2023-02-28T11:36:14;1027.82;;;6.19;68.77
64230;BME280;50547;49.498;0.092;2023-02-28T11:38:43;1027.86;;;6.52;66.84
64230;BME280;50547;49.498;0.092;2023-02-28T11:41:26;1027.82;;;6.36;67.24
64230;BME280;50547;49.498;0.092;2023-02-28T11:44:06;1027.76;;;6.00;68.38
64230;BME280;50547;49.498;0.092;2023-02-28T11:46:40;1027.86;;;5.70;70.63
64230;BME280;50547;49.498;0.092;2023-02-28T11:49:25;1027.82;;;5.41;71.55
64230;BME280;50547;49.498;0.092;2023-02-28T11:52:02;1027.78;;;5.23;72.00
64230;BME280;50547;49.498;0.092;2023-02-28T11:54:59;1027.76;;;5.20;72.42
64230;BME280;50547;49.498;0.092;2023-02-28T11:57:38;1027.80;;;5.26;72.90
64230;BME280;50547;49.498;0.092;2023-02-28T12:00:27;1027.70;;;5.76;70.95
64230;BME280;50547;49.498;0.092;2023-02-28T12:03:15;1027.62;;;5.96;70.71
64230;BME280;50547;49.498;0.092;2023-02-28T12:05:53;1027.60;;;5.87;71.48
64230;BME280;50547;49.498;0.092;2023-02-28T12:08:41;1027.64;;;5.46;74.12
64230;BME280;50547;49.498;0.092;2023-02-28T12:11:27;1027.64;;;5.45;73.99
64230;BME280;50547;49.498;0.092;2023-02-28T12:14:14;1027.53;;;5.48;74.07
64230;BME280;50547;49.498;0.092;2023-02-28T12:16:55;1027.43;;;5.77;72.80
64230;BME280;50547;49.498;0.092;2023-02-28T12:19:29;1027.47;;;5.80;73.10
64230;BME280;50547;49.498;0.092;2023-02-28T12:22:16;1027.37;;;5.89;72.93
64230;BME280;50547;49.498;0.092;2023-02-28T12:25:31;1027.41;;;5.51;74.20
64230;BME280;50547;49.498;0.092;2023-02-28T12:28:09;1027.27;;;5.63;74.33
64230;BME280;50547;49.498;0.092;2023-02-28T12:30:45;1027.23;;;5.07;76.39
64230;BME280;50547;49.498;0.092;2023-02-28T12:33:20;1027.21;;;4.85;77.50
64230;BME280;50547;49.498;0.092;2023-02-28T12:35:55;1027.17;;;4.92;77.27
64230;BME280;50547;49.498;0.092;2023-02-28T12:38:27;1027.14;;;5.12;76.53
64230;BME280;50547;49.498;0.092;2023-02-28T12:41:00;1027.12;;;5.10;76.64
64230;BME280;50547;49.498;0.092;2023-02-28T12:43:33;1027.12;;;5.22;76.59
64230;BME280;50547;49.498;0.092;2023-02-28T12:46:09;1027.12;;;5.27;76.69
64230;BME280;50547;49.498;0.092;2023-02-28T12:48:43;1027.06;;;5.24;77.14
64230;BME280;50547;49.498;0.092;2023-02-28T12:51:15;1027.00;;;5.15;77.97
64230;BME280;50547;49.498;0.092;2023-02-28T12:53:54;1027.00;;;5.40;77.42
64230;BME280;50547;49.498;0.092;2023-02-28T12:56:34;1026.96;;;5.43;77.34
64230;BME280;50547;49.498;0.092;2023-02-28T12:59:13;1026.94;;;5.58;77.12
64230;BME280;50547;49.498;0.092;2023-02-28T13:02:00;1026.92;;;5.58;76.83
64230;BME280;50547;49.498;0.092;2023-02-28T13:09:14;1026.90;;;5.41;78.00
64230;BME280;50547;49.498;0.092;2023-02-28T13:11:46;1026.80;;;5.13;79.56
64230;BME280;50547;49.498;0.092;2023-02-28T13:14:22;1026.72;;;5.23;78.67
64230;BME280;50547;49.498;0.092;2023-02-28T13:16:57;1026.63;;;5.34;77.73
64230;BME280;50547;49.498;0.092;2023-02-28T13:19:29;1026.59;;;5.28;78.18
64230;BME280;50547;49.498;0.092;2023-02-28T13:21:59;1026.59;;;5.34;77.86
64230;BME280;50547;49.498;0.092;2023-02-28T13:24:47;1026.49;;;5.19;78.28
64230;BME280;50547;49.498;0.092;2023-02-28T13:27:35;1026.49;;;4.89;79.31
64230;BME280;50547;49.498;0.092;2023-02-28T13:31:09;1026.53;;;4.94;79.21
64230;BME280;50547;49.498;0.092;2023-02-28T13:34:04;1026.45;;;4.94;79.51
64230;BME280;50547;49.498;0.092;2023-02-28T13:36:34;1026.47;;;4.74;80.73
64230;BME280;50547;49.498;0.092;2023-02-28T13:39:45;1026.35;;;4.82;79.83
64230;BME280;50547;49.498;0.092;2023-02-28T13:42:32;1026.31;;;4.77;79.88
64230;BME280;50547;49.498;0.092;2023-02-28T13:45:22;1026.23;;;4.87;80.14
64230;BME280;50547;49.498;0.092;2023-02-28T13:47:54;1026.27;;;5.22;78.94
64230;BME280;50547;49.498;0.092;2023-02-28T13:50:30;1026.27;;;5.47;78.37
64230;BME280;50547;49.498;0.092;2023-02-28T13:53:19;1026.25;;;5.66;78.19
64230;BME280;50547;49.498;0.092;2023-02-28T13:55:59;1026.16;;;5.56;78.61
64230;BME280;50547;49.498;0.092;2023-02-28T13:58:41;1026.16;;;5.40;79.27
64230;BME280;50547;49.498;0.092;2023-02-28T14:01:22;1026.12;;;5.18;80.14